createdAt,value
2023-04-09T00:00:32.895Z,24.17
2023-04-09T00:03:01.030Z,25.73
2023-04-09T00:05:29.009Z,22.60
2023-04-09T00:07:57.262Z,26.97
2023-04-09T00:10:25.239Z,25.00
2023-04-09T00:12:53.187Z,24.63
2023-04-09T00:15:30.696Z,27.43
2023-04-09T00:18:01.266Z,26.27
2023-04-09T00:20:29.254Z,25.70
2023-04-09T00:22:58.210Z,27.63
2023-04-09T00:25:26.165Z,26.57
2023-04-09T00:27:54.156Z,25.83
2023-04-09T00:30:22.433Z,25.97
2023-04-09T00:32:50.663Z,25.70
2023-04-09T00:35:20.772Z,26.03
2023-04-09T00:37:48.702Z,28.13
2023-04-09T00:40:16.779Z,28.03
2023-04-09T00:42:44.707Z,25.93
2023-04-09T00:45:12.721Z,24.73
2023-04-09T00:47:42.992Z,30.27
2023-04-09T00:50:11.649Z,22.93
2023-04-09T00:52:41.005Z,27.73
2023-04-09T00:55:10.680Z,25.17
2023-04-09T00:57:38.597Z,26.93
2023-04-09T01:00:08.258Z,28.00
2023-04-09T01:02:36.693Z,25.57
2023-04-09T01:05:05.142Z,25.07
2023-04-09T01:07:48.807Z,27.00
2023-04-09T01:10:25.744Z,27.27
2023-04-09T01:13:05.329Z,26.00
2023-04-09T01:15:37.676Z,26.17
2023-04-09T01:18:09.006Z,24.40
2023-04-09T01:20:41.410Z,27.93
2023-04-09T01:23:20.197Z,26.93
2023-04-09T01:26:03.104Z,28.60
2023-04-09T01:28:36.456Z,24.37
2023-04-09T01:31:08.693Z,26.83
2023-04-09T01:33:38.461Z,27.00
2023-04-09T01:36:08.198Z,25.83
2023-04-09T01:38:37.831Z,26.63
2023-04-09T01:41:07.108Z,26.83
2023-04-09T01:43:37.940Z,26.73
2023-04-09T01:46:06.288Z,27.10
2023-04-09T01:48:35.213Z,29.80
2023-04-09T01:51:03.193Z,29.33
2023-04-09T01:53:31.393Z,28.00
2023-04-09T01:56:01.246Z,27.63
2023-04-09T01:58:29.370Z,30.73
2023-04-09T02:01:05.093Z,26.57
2023-04-09T02:03:39.139Z,30.90
2023-04-09T02:06:16.818Z,28.47
2023-04-09T02:08:47.737Z,29.50
2023-04-09T02:11:17.008Z,27.67
2023-04-09T02:13:46.436Z,30.10
2023-04-09T02:16:18.039Z,30.57
2023-04-09T02:18:46.195Z,28.70
2023-04-09T02:21:14.129Z,28.63
2023-04-09T02:23:42.084Z,30.40
2023-04-09T02:26:10.154Z,31.10
2023-04-09T02:28:38.196Z,30.20
2023-04-09T02:31:06.317Z,32.93
2023-04-09T02:33:35.752Z,31.97
2023-04-09T02:36:03.695Z,31.00
2023-04-09T02:38:31.944Z,33.47
2023-04-09T02:40:59.911Z,35.33
2023-04-09T02:43:27.887Z,35.43
2023-04-09T02:45:55.879Z,32.83
2023-04-09T02:48:23.820Z,33.07
2023-04-09T02:50:53.141Z,31.67
2023-04-09T02:53:21.508Z,33.90
2023-04-09T02:55:49.438Z,39.47
2023-04-09T02:58:17.357Z,34.30
2023-04-09T03:00:45.345Z,35.20
2023-04-09T03:03:13.572Z,33.30
2023-04-09T03:05:41.724Z,33.73
2023-04-09T03:08:11.043Z,35.17
2023-04-09T03:10:38.948Z,35.30
2023-04-09T03:13:06.877Z,34.33
2023-04-09T03:15:34.884Z,35.33
2023-04-09T03:18:02.937Z,34.60
2023-04-09T03:20:30.962Z,33.70
2023-04-09T03:22:58.912Z,36.67
2023-04-09T03:25:28.216Z,35.30
2023-04-09T03:27:56.141Z,34.10
2023-04-09T03:30:24.147Z,34.03
2023-04-09T03:32:52.122Z,36.70
2023-04-09T03:35:20.088Z,38.30
2023-04-09T03:37:48.341Z,34.00
2023-04-09T03:40:16.482Z,40.07
2023-04-09T03:42:45.901Z,35.80
2023-04-09T03:45:14.146Z,34.07
2023-04-09T03:47:42.150Z,35.63
2023-04-09T03:50:11.097Z,35.13
2023-04-09T03:52:39.231Z,35.33
2023-04-09T03:55:08.233Z,38.00
2023-04-09T03:57:36.136Z,35.47
2023-04-09T04:00:06.599Z,34.67
2023-04-09T04:02:34.723Z,33.50
2023-04-09T04:05:02.866Z,33.17
2023-04-09T04:07:30.861Z,34.50
2023-04-09T04:09:58.794Z,32.77
2023-04-09T04:12:26.703Z,35.07
2023-04-09T04:14:54.656Z,33.20
2023-04-09T04:17:23.982Z,34.23
2023-04-09T04:19:51.883Z,29.27
2023-04-09T04:22:19.838Z,32.97
2023-04-09T04:24:47.820Z,31.27
2023-04-09T04:27:16.072Z,30.73
2023-04-09T04:29:43.974Z,32.90
2023-04-09T04:32:11.860Z,33.77
2023-04-09T04:34:41.158Z,31.80
2023-04-09T04:37:09.058Z,36.80
2023-04-09T04:39:37.046Z,32.67
2023-04-09T04:42:05.183Z,32.53
2023-04-09T04:44:33.151Z,31.10
2023-04-09T04:47:01.121Z,32.33
2023-04-09T04:49:29.022Z,33.03
2023-04-09T04:51:58.290Z,31.87
2023-04-09T04:54:26.321Z,31.30
2023-04-09T04:56:54.211Z,33.30
2023-04-09T04:59:22.133Z,32.33
2023-04-09T05:01:50.152Z,31.40
2023-04-09T05:04:18.105Z,32.77
2023-04-09T05:06:46.152Z,30.67
2023-04-09T05:09:15.668Z,33.13
2023-04-09T05:11:43.758Z,32.60
2023-04-09T05:14:13.072Z,31.43
2023-04-09T05:16:41.492Z,32.93
2023-04-09T05:19:09.528Z,33.00
2023-04-09T05:21:37.439Z,29.53
2023-04-09T05:24:06.254Z,29.53
2023-04-09T05:26:35.640Z,31.47
2023-04-09T05:29:04.804Z,30.97
2023-04-09T05:31:32.718Z,32.17
2023-04-09T05:34:00.774Z,32.97
2023-04-09T05:36:28.716Z,31.90
2023-04-09T05:38:56.682Z,34.07
2023-04-09T05:41:24.664Z,31.10
2023-04-09T05:43:54.206Z,34.87
2023-04-09T05:46:22.412Z,32.97
2023-04-09T05:48:50.491Z,32.77
2023-04-09T05:51:20.665Z,31.70
2023-04-09T05:53:48.562Z,35.40
2023-04-09T05:56:17.211Z,35.03
2023-04-09T05:58:45.282Z,35.57
2023-04-09T06:01:14.589Z,32.37
2023-04-09T06:03:42.762Z,34.37
2023-04-09T06:06:10.830Z,33.23
2023-04-09T06:08:38.841Z,33.73
2023-04-09T06:11:10.305Z,40.33
2023-04-09T06:13:38.315Z,35.77
2023-04-09T06:16:07.260Z,33.23
2023-04-09T06:18:37.842Z,32.13
2023-04-09T06:21:06.365Z,32.00
2023-04-09T06:23:35.301Z,33.93
2023-04-09T06:26:03.508Z,38.20
2023-04-09T06:28:31.729Z,34.27
2023-04-09T06:31:00.288Z,34.20
2023-04-09T06:33:28.433Z,33.67
2023-04-09T06:35:57.750Z,35.50
2023-04-09T06:38:25.713Z,31.33
2023-04-09T06:40:53.690Z,33.90
2023-04-09T06:43:21.969Z,34.60
2023-04-09T06:45:49.864Z,35.23
2023-04-09T06:48:17.809Z,37.23
2023-04-09T06:50:46.164Z,33.73
2023-04-09T06:53:16.523Z,35.83
2023-04-09T06:55:44.434Z,33.90
2023-04-09T06:58:12.396Z,33.50
2023-04-09T07:00:40.381Z,35.27
2023-04-09T07:03:09.359Z,34.83
2023-04-09T07:05:37.530Z,35.90
2023-04-09T07:08:05.813Z,36.73
2023-04-09T07:10:35.221Z,35.40
2023-04-09T07:13:03.297Z,35.70
2023-04-09T07:15:31.296Z,35.27
2023-04-09T07:17:59.264Z,36.97
2023-04-09T07:20:27.260Z,35.53
2023-04-09T07:22:55.148Z,39.67
2023-04-09T07:25:23.104Z,41.40
2023-04-09T07:27:52.649Z,37.27
2023-04-09T07:30:20.592Z,40.10
2023-04-09T07:32:48.608Z,41.60
2023-04-09T07:35:16.582Z,43.50
2023-04-09T07:37:44.784Z,43.57
2023-04-09T07:40:13.235Z,44.37
2023-04-09T07:42:42.728Z,39.77
2023-04-09T07:45:12.057Z,39.93
2023-04-09T07:47:41.366Z,45.77
2023-04-09T07:50:10.540Z,42.00
2023-04-09T07:52:38.553Z,43.67
2023-04-09T07:55:07.364Z,47.10
2023-04-09T07:57:35.330Z,49.53
2023-04-09T08:00:03.899Z,52.50
2023-04-09T08:02:33.393Z,48.03
2023-04-09T08:05:01.462Z,50.10
2023-04-09T08:07:29.456Z,51.27
2023-04-09T08:09:57.445Z,54.13
2023-04-09T08:12:25.508Z,55.80
2023-04-09T08:14:53.694Z,52.97
2023-04-09T08:17:22.295Z,56.97
2023-04-09T08:19:51.806Z,61.33
2023-04-09T08:22:20.146Z,57.03
2023-04-09T08:24:52.995Z,59.83
2023-04-09T08:27:21.955Z,58.23
2023-04-09T08:29:50.445Z,59.70
2023-04-09T08:32:18.546Z,59.53
2023-04-09T08:34:46.618Z,59.10
2023-04-09T08:37:16.593Z,57.53
2023-04-09T08:39:44.602Z,59.27
2023-04-09T08:42:13.626Z,57.03
2023-04-09T08:44:41.598Z,56.87
2023-04-09T08:47:11.719Z,61.60
2023-04-09T08:49:41.235Z,61.07
2023-04-09T08:52:09.167Z,66.70
2023-04-09T08:54:38.611Z,63.37
2023-04-09T08:57:07.281Z,58.97
2023-04-09T08:59:37.321Z,58.50
2023-04-09T09:02:09.152Z,63.40
2023-04-09T09:04:47.559Z,56.33
2023-04-09T09:07:15.965Z,59.80
2023-04-09T09:09:56.228Z,59.83
2023-04-09T09:12:38.498Z,62.03
2023-04-09T09:15:25.422Z,56.63
2023-04-09T09:17:55.567Z,63.77
2023-04-09T09:20:25.145Z,60.77
2023-04-09T09:22:55.627Z,57.73
2023-04-09T09:25:26.280Z,56.87
2023-04-09T09:27:55.434Z,61.67
2023-04-09T09:30:24.671Z,59.60
2023-04-09T09:33:05.226Z,56.40
2023-04-09T09:35:47.295Z,60.47
2023-04-09T09:38:16.014Z,58.60
2023-04-09T09:40:45.420Z,60.27
2023-04-09T09:43:14.719Z,55.40
2023-04-09T09:45:44.320Z,55.57
2023-04-09T09:48:13.246Z,60.00
2023-04-09T09:50:42.818Z,53.67
2023-04-09T09:53:12.025Z,54.50
2023-04-09T09:55:41.767Z,55.17
2023-04-09T09:58:17.991Z,56.00
2023-04-09T10:00:48.894Z,54.37
2023-04-09T10:03:22.234Z,57.07
2023-04-09T10:05:51.464Z,53.73
2023-04-09T10:08:20.078Z,53.97
2023-04-09T10:10:48.533Z,57.07
2023-04-09T10:13:27.185Z,57.37
2023-04-09T10:15:55.586Z,63.23
2023-04-09T10:18:23.662Z,58.93
2023-04-09T10:20:57.789Z,59.43
2023-04-09T10:23:34.946Z,61.33
2023-04-09T10:26:03.144Z,63.27
2023-04-09T10:28:33.164Z,59.47
2023-04-09T10:31:01.436Z,61.93
2023-04-09T10:33:29.547Z,61.93
2023-04-09T10:36:02.417Z,61.73
2023-04-09T10:38:38.467Z,60.80
2023-04-09T10:41:14.991Z,63.50
2023-04-09T10:43:44.588Z,57.67
2023-04-09T10:46:29.650Z,62.83
2023-04-09T10:49:12.133Z,58.70
2023-04-09T10:51:40.711Z,59.77
2023-04-09T10:54:47.545Z,64.97
2023-04-09T10:57:18.051Z,58.10
2023-04-09T10:59:49.403Z,57.53
2023-04-09T11:02:46.168Z,61.67
2023-04-09T11:05:22.822Z,58.87
2023-04-09T11:07:59.659Z,60.30
2023-04-09T11:10:28.409Z,57.37
2023-04-09T11:12:56.403Z,57.57
2023-04-09T11:15:26.110Z,54.63
2023-04-09T11:17:54.307Z,55.77
2023-04-09T11:20:23.496Z,55.80
2023-04-09T11:22:53.281Z,50.33
2023-04-09T11:25:22.292Z,55.93
2023-04-09T11:27:52.254Z,56.10
2023-04-09T11:30:20.512Z,52.97
2023-04-09T11:32:50.478Z,55.13
2023-04-09T11:35:19.531Z,53.00
2023-04-09T11:37:48.660Z,52.87
2023-04-09T11:40:17.938Z,56.63
2023-04-09T11:42:46.564Z,62.40
2023-04-09T11:45:18.061Z,54.10
2023-04-09T11:47:46.712Z,53.80
2023-04-09T11:50:17.178Z,53.70
2023-04-09T11:52:46.413Z,54.57
2023-04-09T11:55:24.618Z,48.97
2023-04-09T11:57:54.051Z,48.80
2023-04-09T12:00:24.698Z,51.90
2023-04-09T12:03:00.831Z,52.13
2023-04-09T12:05:31.880Z,49.23
2023-04-09T12:08:01.861Z,47.67
2023-04-09T12:10:31.379Z,49.10
2023-04-09T12:13:03.792Z,48.78
2023-04-09T12:15:36.119Z,50.00
2023-04-09T12:18:04.795Z,52.57
2023-04-09T12:20:35.791Z,47.88
2023-04-09T12:23:05.908Z,47.67
2023-04-09T12:25:35.292Z,43.97
2023-04-09T12:28:04.107Z,43.63
2023-04-09T12:30:32.469Z,46.28
2023-04-09T12:33:00.727Z,41.53
2023-04-09T12:35:29.281Z,43.05
2023-04-09T12:37:59.895Z,44.73
2023-04-09T12:40:28.287Z,45.63
2023-04-09T12:42:56.473Z,42.80
2023-04-09T12:45:24.779Z,45.67
2023-04-09T12:47:53.006Z,43.85
2023-04-09T12:50:21.035Z,59.78
2023-04-09T12:52:49.011Z,45.08
2023-04-09T12:55:18.342Z,43.77
2023-04-09T12:57:47.126Z,39.22
2023-04-09T13:00:16.335Z,40.73
2023-04-09T13:02:44.739Z,37.40
2023-04-09T13:05:12.796Z,39.05
2023-04-09T13:07:42.863Z,39.47
2023-04-09T13:10:11.657Z,39.20
2023-04-09T13:12:41.281Z,38.28
2023-04-09T13:15:09.606Z,38.25
2023-04-09T13:17:37.684Z,36.58
2023-04-09T13:20:06.931Z,34.83
2023-04-09T13:22:34.988Z,41.75
2023-04-09T13:25:02.995Z,35.72
2023-04-09T13:27:31.049Z,33.13
2023-04-09T13:30:00.603Z,35.20
2023-04-09T13:32:28.591Z,40.03
2023-04-09T13:34:57.901Z,36.47
2023-04-09T13:37:26.048Z,34.92
2023-04-09T13:39:54.304Z,35.90
2023-04-09T13:42:22.198Z,36.95
2023-04-09T13:44:50.136Z,37.42
2023-04-09T13:47:19.830Z,33.83
2023-04-09T13:49:47.814Z,32.60
2023-04-09T13:52:16.135Z,31.95
2023-04-09T13:54:44.335Z,34.00
2023-04-09T13:57:12.329Z,33.13
2023-04-09T13:59:41.735Z,34.83
2023-04-09T14:02:10.364Z,33.05
2023-04-09T14:04:39.939Z,34.28
2023-04-09T14:07:08.387Z,29.35
2023-04-09T14:09:36.456Z,29.52
2023-04-09T14:12:04.777Z,31.15
2023-04-09T14:14:32.737Z,31.23
2023-04-09T14:17:00.701Z,30.45
2023-04-09T14:19:28.688Z,27.35
2023-04-09T14:21:57.999Z,28.08
2023-04-09T14:24:25.981Z,28.90
2023-04-09T14:26:54.071Z,28.65
2023-04-09T14:29:22.705Z,28.55
2023-04-09T14:31:51.777Z,26.67
2023-04-09T14:34:19.768Z,23.40
2023-04-09T14:36:47.924Z,23.45
2023-04-09T14:39:17.793Z,25.23
2023-04-09T14:41:45.945Z,24.65
2023-04-09T14:44:14.000Z,24.50
2023-04-09T14:46:42.017Z,21.13
2023-04-09T14:49:10.201Z,23.92
2023-04-09T14:51:38.332Z,26.80
2023-04-09T14:54:06.321Z,22.40
2023-04-09T14:56:36.050Z,21.85
2023-04-09T14:59:04.322Z,23.40
2023-04-09T15:01:33.268Z,20.35
2023-04-09T15:04:01.668Z,21.80
2023-04-09T15:06:31.364Z,18.23
2023-04-09T15:08:59.417Z,17.38
2023-04-09T15:11:28.854Z,18.98
2023-04-09T15:13:58.214Z,18.27
2023-04-09T15:16:27.758Z,17.95
2023-04-09T15:18:58.555Z,17.52
2023-04-09T15:21:27.123Z,15.93
2023-04-09T15:23:56.166Z,16.17
2023-04-09T15:26:24.227Z,15.73
2023-04-09T15:28:53.670Z,14.13
2023-04-09T15:31:23.219Z,13.93
2023-04-09T15:33:51.293Z,15.50
2023-04-09T15:36:19.325Z,15.15
2023-04-09T15:38:47.401Z,15.43
2023-04-09T15:41:17.204Z,13.63
2023-04-09T15:43:45.330Z,16.42
2023-04-09T15:46:15.522Z,15.18
2023-04-09T15:48:45.339Z,16.65
2023-04-09T15:51:13.696Z,17.02
2023-04-09T15:53:41.868Z,13.85
2023-04-09T15:56:15.088Z,16.75
2023-04-09T15:58:44.312Z,14.27
2023-04-09T16:01:14.612Z,12.95
2023-04-09T16:04:02.060Z,13.05
2023-04-09T16:06:30.638Z,11.82
2023-04-09T16:08:58.791Z,10.95
2023-04-09T16:11:26.764Z,12.18
2023-04-09T16:13:56.113Z,12.20
2023-04-09T16:16:24.184Z,10.63
2023-04-09T16:18:54.194Z,15.57
2023-04-09T16:21:22.485Z,15.88
2023-04-09T16:23:50.562Z,13.63
2023-04-09T16:26:18.604Z,13.30
2023-04-09T16:28:46.653Z,17.15
2023-04-09T16:31:14.871Z,17.35
2023-04-09T16:33:42.896Z,15.50
2023-04-09T16:36:12.226Z,15.02
2023-04-09T16:38:40.404Z,13.05
2023-04-09T16:41:08.550Z,14.82
2023-04-09T16:43:36.507Z,13.70
2023-04-09T16:46:06.581Z,14.80
2023-04-09T16:48:35.746Z,14.52
2023-04-09T16:51:03.771Z,13.32
2023-04-09T16:53:33.116Z,13.93
2023-04-09T16:56:01.411Z,13.35
2023-04-09T16:58:30.028Z,13.38
2023-04-09T17:00:59.307Z,15.55
2023-04-09T17:03:27.319Z,14.35
2023-04-09T17:05:57.167Z,14.23
2023-04-09T17:08:25.360Z,15.52
2023-04-09T17:11:01.896Z,15.65
2023-04-09T17:13:31.767Z,15.43
2023-04-09T17:15:59.818Z,14.57
2023-04-09T17:18:27.972Z,15.30
2023-04-09T17:20:56.032Z,17.30
2023-04-09T17:23:23.995Z,14.15
2023-04-09T17:25:52.167Z,15.77
2023-04-09T17:28:21.627Z,13.38
2023-04-09T17:30:49.608Z,14.25
2023-04-09T17:33:17.719Z,14.75
2023-04-09T17:35:45.823Z,18.95
2023-04-09T17:38:20.490Z,13.55
2023-04-09T17:40:49.150Z,17.45
2023-04-09T17:43:17.663Z,15.82
2023-04-09T17:45:47.031Z,14.75
2023-04-09T17:48:14.959Z,16.05
2023-04-09T17:50:44.574Z,14.70
2023-04-09T17:53:12.840Z,16.13
2023-04-09T17:55:45.937Z,16.10
2023-04-09T17:58:14.257Z,16.08
2023-04-09T18:00:42.859Z,17.83
2023-04-09T18:03:13.530Z,16.80
2023-04-09T18:05:41.962Z,17.25
2023-04-09T18:08:12.359Z,16.70
2023-04-09T18:10:40.392Z,15.30
2023-04-09T18:13:08.424Z,14.27
2023-04-09T18:15:36.596Z,14.90
2023-04-09T18:18:04.848Z,16.17
2023-04-09T18:20:34.281Z,15.77
2023-04-09T18:23:02.247Z,15.55
2023-04-09T18:25:30.336Z,17.73
2023-04-09T18:27:58.437Z,15.73
2023-04-09T18:30:26.797Z,14.07
2023-04-09T18:32:55.141Z,15.32
2023-04-09T18:35:23.236Z,15.15
2023-04-09T18:37:52.693Z,14.70
2023-04-09T18:40:21.099Z,13.88
2023-04-09T18:42:52.393Z,15.60
2023-04-09T18:45:20.644Z,15.75
2023-04-09T18:47:48.729Z,14.52
2023-04-09T18:50:18.666Z,15.10
2023-04-09T18:52:46.762Z,14.35
2023-04-09T18:55:16.809Z,18.13
2023-04-09T18:57:45.132Z,16.90
2023-04-09T19:00:14.161Z,17.10
2023-04-09T19:02:42.964Z,14.68
2023-04-09T19:05:11.885Z,13.95
2023-04-09T19:07:40.229Z,12.15
2023-04-09T19:10:09.273Z,14.27
2023-04-09T19:12:47.509Z,15.38
2023-04-09T19:15:16.062Z,15.38
2023-04-09T19:17:44.959Z,17.13
2023-04-09T19:20:13.602Z,14.00
2023-04-09T19:22:41.847Z,13.80
2023-04-09T19:25:10.791Z,15.40
2023-04-09T19:27:40.794Z,13.85
2023-04-09T19:30:10.574Z,12.77
2023-04-09T19:32:39.057Z,14.38
2023-04-09T19:35:08.921Z,14.30
2023-04-09T19:37:38.224Z,16.02
2023-04-09T19:40:09.295Z,44.53
2023-04-09T19:42:37.993Z,33.17
2023-04-09T19:45:09.404Z,22.95
2023-04-09T19:47:37.581Z,19.15
2023-04-09T19:50:06.274Z,14.75
2023-04-09T19:52:34.389Z,15.82
2023-04-09T19:55:04.384Z,14.05
2023-04-09T19:57:32.756Z,14.23
2023-04-09T20:00:00.946Z,14.13
2023-04-09T20:02:31.762Z,14.88
2023-04-09T20:05:00.142Z,15.45
2023-04-09T20:07:28.714Z,14.17
2023-04-09T20:09:57.622Z,13.63
2023-04-09T20:12:29.534Z,17.35
2023-04-09T20:14:58.567Z,14.47
2023-04-09T20:17:26.893Z,12.75
2023-04-09T20:19:56.841Z,14.23
2023-04-09T20:22:25.021Z,13.30
2023-04-09T20:24:55.450Z,16.15
2023-04-09T20:27:24.573Z,12.48
2023-04-09T20:29:53.678Z,12.60
2023-04-09T20:32:22.635Z,14.43
2023-04-09T20:34:51.317Z,12.43
2023-04-09T20:37:21.837Z,13.30
2023-04-09T20:39:51.540Z,13.70
2023-04-09T20:42:20.123Z,14.30
2023-04-09T20:44:50.444Z,15.10
2023-04-09T20:47:21.038Z,15.03
2023-04-09T20:49:51.001Z,13.00
2023-04-09T20:52:20.689Z,39.87
2023-04-09T20:54:50.915Z,39.03
2023-04-09T20:57:21.046Z,20.38
2023-04-09T20:59:50.083Z,17.07
2023-04-09T21:02:19.844Z,17.37
2023-04-09T21:04:50.804Z,13.27
2023-04-09T21:07:20.439Z,16.83
2023-04-09T21:09:48.749Z,13.63
2023-04-09T21:12:18.322Z,14.02
2023-04-09T21:14:53.523Z,14.17
2023-04-09T21:17:21.886Z,15.80
2023-04-09T21:20:13.131Z,15.43
2023-04-09T21:22:43.831Z,15.77
2023-04-09T21:25:14.590Z,13.87
2023-04-09T21:27:43.851Z,15.47
2023-04-09T21:30:13.234Z,12.80
2023-04-09T21:32:41.433Z,12.87
2023-04-09T21:35:09.669Z,13.53
2023-04-09T21:37:38.329Z,13.63
2023-04-09T21:40:10.104Z,14.47
2023-04-09T21:42:38.260Z,14.43
2023-04-09T21:45:07.040Z,13.43
2023-04-09T21:47:55.613Z,13.03
2023-04-09T21:50:24.377Z,13.83
2023-04-09T21:52:52.541Z,13.37
2023-04-09T21:55:22.178Z,13.57
2023-04-09T21:57:52.949Z,15.60
2023-04-09T22:00:21.584Z,12.73
2023-04-09T22:02:49.987Z,12.50
2023-04-09T22:05:20.890Z,15.07
2023-04-09T22:07:49.040Z,13.33
2023-04-09T22:10:17.254Z,11.87
2023-04-09T22:12:46.750Z,12.40
2023-04-09T22:15:16.984Z,12.67
2023-04-09T22:17:45.676Z,12.57
2023-04-09T22:20:14.020Z,11.83
2023-04-09T22:22:42.726Z,13.83
2023-04-09T22:25:11.935Z,13.20
2023-04-09T22:27:40.276Z,12.73
2023-04-09T22:30:10.793Z,13.53
2023-04-09T22:32:39.788Z,12.67
2023-04-09T22:35:08.322Z,15.10
2023-04-09T22:37:37.397Z,13.37
2023-04-09T22:40:12.831Z,13.40
2023-04-09T22:42:41.703Z,12.83
2023-04-09T22:45:13.750Z,13.37
2023-04-09T22:47:42.141Z,13.10
2023-04-09T22:50:13.573Z,12.47
2023-04-09T22:52:41.970Z,14.63
2023-04-09T22:55:11.356Z,11.47
2023-04-09T22:57:42.712Z,12.97
2023-04-09T23:00:13.110Z,13.20
2023-04-09T23:02:41.592Z,11.97
2023-04-09T23:05:11.755Z,11.63
2023-04-09T23:07:41.702Z,12.53
2023-04-09T23:10:14.146Z,13.90
2023-04-09T23:12:42.262Z,14.50
2023-04-09T23:15:12.778Z,13.50
2023-04-09T23:17:41.659Z,13.20
2023-04-09T23:20:11.324Z,14.50
2023-04-09T23:22:39.332Z,18.40
2023-04-09T23:25:08.062Z,13.47
2023-04-09T23:27:36.178Z,14.03
2023-04-09T23:30:05.234Z,12.03
2023-04-09T23:32:35.231Z,12.10
2023-04-09T23:35:04.858Z,13.50
2023-04-09T23:37:33.109Z,12.70
2023-04-09T23:40:03.998Z,12.10
2023-04-09T23:42:34.073Z,12.27
2023-04-09T23:45:03.848Z,12.33
2023-04-09T23:47:33.596Z,10.17
2023-04-09T23:50:04.976Z,10.97
2023-04-09T23:52:34.323Z,10.17
2023-04-09T23:55:02.843Z,10.87
2023-04-09T23:57:30.910Z,10.67
2023-04-09T23:59:58.981Z,9.80
